Time;durP1;ratioP1;P1;durP2;ratioP2;P2;SDS_P1;SDS_P2;PMS_P1;PMS_P2;Temp;Humidity;BMP_temperature;BMP_pressure;BME280_temperature;BME280_humidity;BME280_pressure;Samples;Min_cycle;Max_cycle;Signal;HPM_P1;HPM_P2
2021/09/27 00:00:57;;;;;;;12.85;7.93;;;19.30;99.70;;;;;;6273505;22;20003;-78
2021/09/27 00:03:23;;;;;;;8.77;7.68;;;19.30;99.90;;;;;;6301762;22;20007;-78
2021/09/27 00:05:49;;;;;;;8.85;7.43;;;19.20;99.90;;;;;;6302151;22;20018;-78
2021/09/27 00:08:16;;;;;;;10.05;6.35;;;19.20;99.90;;;;;;6300236;22;20314;-78
2021/09/27 00:10:55;;;;;;;8.23;7.03;;;19.20;99.90;;;;;;6301618;22;20006;-78
2021/09/27 00:13:23;;;;;;;13.80;6.18;;;19.20;99.90;;;;;;6274192;22;20039;-78
2021/09/27 00:15:51;;;;;;;8.45;5.20;;;19.30;99.90;;;;;;6301698;22;20489;-79
2021/09/27 00:18:18;;;;;;;5.45;4.32;;;19.40;99.90;;;;;;6300618;22;20003;-78
2021/09/27 00:20:50;;;;;;;5.45;3.63;;;19.50;99.00;;;;;;6301162;22;20053;-78
2021/09/27 00:23:17;;;;;;;3.23;2.53;;;19.60;98.10;;;;;;6274517;22;20076;-76
2021/09/27 00:25:42;;;;;;;2.83;2.42;;;19.70;97.30;;;;;;6274840;22;20425;-78
2021/09/27 00:28:08;;;;;;;8.05;2.90;;;19.70;97.20;;;;;;6300102;22;20035;-78
2021/09/27 00:30:34;;;;;;;5.78;3.90;;;19.70;97.40;;;;;;6302001;22;20031;-78
2021/09/27 00:32:59;;;;;;;7.07;4.65;;;19.80;97.70;;;;;;6301035;22;20003;-78
2021/09/27 00:35:29;;;;;;;8.38;5.13;;;19.70;98.70;;;;;;6301289;22;20083;-78
2021/09/27 00:37:55;;;;;;;11.32;6.70;;;19.70;99.50;;;;;;6301078;22;20081;-81
2021/09/27 00:40:25;;;;;;;10.63;6.45;;;19.60;99.90;;;;;;6301549;22;20003;-77
2021/09/27 00:42:52;;;;;;;13.73;7.40;;;19.40;99.90;;;;;;6302103;22;20425;-77
2021/09/27 00:45:20;;;;;;;12.43;8.18;;;19.40;99.90;;;;;;6303720;22;20007;-76
2021/09/27 00:47:46;;;;;;;10.50;8.02;;;19.30;99.90;;;;;;6301822;22;20065;-79
2021/09/27 00:50:15;;;;;;;15.32;9.00;;;19.10;99.90;;;;;;6304162;22;20077;-77
2021/09/27 00:52:41;;;;;;;14.20;9.77;;;19.10;99.90;;;;;;6303742;22;20012;-77
2021/09/27 00:55:11;;;;;;;14.73;9.57;;;19.00;99.90;;;;;;6303112;22;20000;-77
2021/09/27 00:57:36;;;;;;;19.58;10.52;;;19.00;99.90;;;;;;6303870;22;19995;-78
2021/09/27 01:00:05;;;;;;;15.90;9.93;;;18.90;99.90;;;;;;6303782;22;20307;-78
2021/09/27 01:02:32;;;;;;;14.50;8.82;;;18.90;99.90;;;;;;6303208;22;20008;-78
2021/09/27 01:04:57;;;;;;;16.80;8.93;;;18.80;99.90;;;;;;6304232;22;20007;-79
2021/09/27 01:07:44;;;;;;;13.80;8.20;;;18.70;99.90;;;;;;6303900;22;20563;-79
2021/09/27 01:10:28;;;;;;;10.95;8.10;;;18.60;99.90;;;;;;6304178;22;20385;-78
2021/09/27 01:13:20;;;;;;;11.30;8.15;;;18.60;99.90;;;;;;6302965;22;20015;-78
2021/09/27 01:16:02;;;;;;;18.00;8.80;;;18.50;99.90;;;;;;6303695;22;20402;-77
2021/09/27 01:18:39;;;;;;;10.77;7.35;;;18.50;99.90;;;;;;6303643;22;19995;-78
2021/09/27 01:21:27;;;;;;;10.93;6.97;;;18.40;99.90;;;;;;6303230;22;20226;-78
2021/09/27 01:24:34;;;;;;;13.13;7.22;;;18.40;99.90;;;;;;6304379;22;20581;-78
2021/09/27 01:27:19;;;;;;;9.65;6.55;;;18.40;99.90;;;;;;6303854;22;20015;-78
2021/09/27 01:30:09;;;;;;;11.82;7.22;;;18.40;99.90;;;;;;6303458;22;20003;-78
2021/09/27 01:33:06;;;;;;;11.05;5.57;;;18.30;99.90;;;;;;6275652;22;20004;-78
2021/09/27 01:35:48;;;;;;;9.10;5.38;;;18.30;99.90;;;;;;6274136;22;19999;-77
2021/09/27 01:38:19;;;;;;;9.10;5.20;;;18.30;99.90;;;;;;6302935;22;20481;-78
2021/09/27 01:41:25;;;;;;;8.20;4.13;;;18.30;99.90;;;;;;6303103;22;20000;-78
2021/09/27 01:44:07;;;;;;;9.45;4.00;;;18.30;99.90;;;;;;6304183;22;20014;-78
2021/09/27 01:46:55;;;;;;;8.85;4.68;;;18.30;99.90;;;;;;6303783;22;20522;-77
2021/09/27 01:49:39;;;;;;;4.85;3.33;;;18.30;99.90;;;;;;6302822;22;20083;-78
2021/09/27 01:52:18;;;;;;;7.40;3.75;;;18.30;99.90;;;;;;6302792;22;20089;-78
2021/09/27 01:54:47;;;;;;;4.25;2.42;;;18.30;99.90;;;;;;6302376;22;20003;-78
2021/09/27 01:57:23;;;;;;;4.88;3.00;;;18.30;99.90;;;;;;6302917;22;20004;-77
2021/09/27 01:59:59;;;;;;;4.95;2.75;;;18.30;99.90;;;;;;6302285;22;20054;-77
2021/09/27 02:02:50;;;;;;;3.95;2.67;;;18.30;99.90;;;;;;6275594;22;20090;-78
2021/09/27 02:05:23;;;;;;;6.18;3.55;;;18.40;99.90;;;;;;6303254;22;20003;-78
2021/09/27 02:07:55;;;;;;;4.85;3.08;;;18.40;99.90;;;;;;6301082;22;20003;-77
2021/09/27 02:10:25;;;;;;;5.28;3.08;;;18.40;99.90;;;;;;6303052;22;20006;-77
2021/09/27 02:13:03;;;;;;;6.50;3.30;;;18.40;99.90;;;;;;6303066;22;20031;-77
2021/09/27 02:15:37;;;;;;;6.95;3.33;;;18.50;99.90;;;;;;6276365;22;20003;-77
2021/09/27 02:18:19;;;;;;;5.60;3.17;;;18.50;99.90;;;;;;6302489;22;20458;-77
2021/09/27 02:20:53;;;;;;;6.97;3.42;;;18.60;99.90;;;;;;6302810;22;19999;-78
2021/09/27 02:23:33;;;;;;;5.45;2.97;;;18.60;99.90;;;;;;6303648;22;20435;-78
2021/09/27 02:25:59;;;;;;;5.72;2.72;;;18.60;99.90;;;;;;6302676;22;20082;-78
2021/09/27 02:28:25;;;;;;;5.70;3.40;;;18.60;99.90;;;;;;6301769;22;19999;-78
2021/09/27 02:31:09;;;;;;;6.18;3.63;;;18.60;99.90;;;;;;6301593;22;20021;-78
2021/09/27 02:33:57;;;;;;;7.60;3.30;;;18.60;99.90;;;;;;6302840;22;20081;-78
2021/09/27 02:36:32;;;;;;;9.02;4.10;;;18.60;99.90;;;;;;6303528;22;20002;-78
2021/09/27 02:39:24;;;;;;;8.30;3.67;;;18.60;99.90;;;;;;6274415;22;20026;-78
2021/09/27 02:41:59;;;;;;;5.70;4.00;;;18.60;99.90;;;;;;6302618;22;20060;-77
2021/09/27 02:44:25;;;;;;;7.07;4.15;;;18.60;99.90;;;;;;6303484;22;20004;-78
2021/09/27 02:46:55;;;;;;;6.80;4.10;;;18.60;99.90;;;;;;6302043;22;20022;-78
2021/09/27 02:49:27;;;;;;;9.02;4.10;;;18.60;99.90;;;;;;6301894;22;20330;-79
2021/09/27 02:51:56;;;;;;;7.90;4.45;;;18.60;99.90;;;;;;6303364;22;20032;-79
2021/09/27 02:54:35;;;;;;;9.77;4.57;;;18.60;99.90;;;;;;6302520;22;20004;-78
2021/09/27 02:57:38;;;;;;;8.05;4.70;;;18.60;99.90;;;;;;6303239;22;19995;-78
2021/09/27 03:00:36;;;;;;;13.23;6.88;;;18.60;99.90;;;;;;6302063;22;20649;-79
2021/09/27 03:03:14;;;;;;;13.18;5.93;;;18.50;99.90;;;;;;6250198;22;20053;-79
2021/09/27 03:05:59;;;;;;;13.10;6.20;;;18.50;99.90;;;;;;6302450;22;20010;-80
2021/09/27 03:08:49;;;;;;;10.88;5.72;;;18.50;99.90;;;;;;6222917;22;20449;-80
2021/09/27 03:11:52;;;;;;;12.00;7.03;;;18.50;99.90;;;;;;6302632;22;20029;-82
2021/09/27 03:14:46;;;;;;;10.80;6.25;;;18.50;99.90;;;;;;6302163;22;20004;-80
2021/09/27 03:17:30;;;;;;;18.13;7.22;;;18.60;99.90;;;;;;6303362;22;20070;-79
2021/09/27 03:20:04;;;;;;;15.73;7.35;;;18.60;99.90;;;;;;6302752;22;19999;-79
2021/09/27 03:23:03;;;;;;;18.33;7.55;;;18.60;99.90;;;;;;6300846;22;20015;-78
2021/09/27 03:26:01;;;;;;;13.45;6.72;;;18.60;99.90;;;;;;6302781;22;20007;-79
2021/09/27 03:28:50;;;;;;;10.77;6.95;;;18.60;99.90;;;;;;6274383;22;20015;-79
2021/09/27 03:31:44;;;;;;;11.77;7.10;;;18.60;99.90;;;;;;6302435;22;19995;-79
2021/09/27 03:34:52;;;;;;;12.07;6.55;;;18.60;99.90;;;;;;6302238;22;20390;-79
2021/09/27 03:37:53;;;;;;;10.60;6.00;;;18.60;99.90;;;;;;6302502;22;19996;-80
2021/09/27 03:40:41;;;;;;;12.02;7.28;;;18.60;99.90;;;;;;6301731;22;20002;-77
2021/09/27 03:43:43;;;;;;;9.60;6.28;;;18.60;99.90;;;;;;6301663;22;20009;-77
2021/09/27 03:46:37;;;;;;;9.70;6.60;;;18.60;99.90;;;;;;6302344;22;20003;-79
2021/09/27 03:49:14;;;;;;;11.02;6.15;;;18.60;99.90;;;;;;6274136;22;20006;-78
2021/09/27 03:51:47;;;;;;;12.20;6.85;;;18.60;99.90;;;;;;6301907;22;20017;-78
2021/09/27 03:54:27;;;;;;;8.75;6.55;;;18.60;99.90;;;;;;6301276;22;20003;-78
2021/09/27 03:56:59;;;;;;;13.43;6.93;;;18.60;99.90;;;;;;6302492;22;19995;-78
2021/09/27 03:59:44;;;;;;;12.00;6.53;;;18.70;99.90;;;;;;6301188;22;20006;-78
2021/09/27 04:02:27;;;;;;;11.20;6.32;;;18.70;99.90;;;;;;6301242;22;20019;-78
2021/09/27 04:05:08;;;;;;;15.25;7.28;;;18.70;99.90;;;;;;6302495;22;20426;-78
2021/09/27 04:07:53;;;;;;;12.25;6.93;;;18.70;99.90;;;;;;6301445;22;19999;-78
2021/09/27 04:10:25;;;;;;;12.82;7.25;;;18.70;99.90;;;;;;6302530;22;20398;-77
2021/09/27 04:13:09;;;;;;;10.73;6.50;;;18.70;99.90;;;;;;6302401;22;20003;-77
2021/09/27 04:15:59;;;;;;;11.20;7.35;;;18.70;99.90;;;;;;6302298;22;20076;-77
2021/09/27 04:18:40;;;;;;;14.23;7.22;;;18.70;99.90;;;;;;6301380;22;20010;-78
2021/09/27 04:21:36;;;;;;;13.20;7.72;;;18.70;99.90;;;;;;6301426;22;20003;-80
2021/09/27 04:24:26;;;;;;;15.07;8.10;;;18.80;99.90;;;;;;6300866;22;20079;-78
2021/09/27 04:27:06;;;;;;;10.10;7.63;;;18.70;99.90;;;;;;6297456;22;20007;-78
2021/09/27 04:29:59;;;;;;;10.75;7.65;;;18.70;99.90;;;;;;6300666;22;20019;-78
2021/09/27 04:32:38;;;;;;;12.25;7.35;;;18.80;99.90;;;;;;6301839;22;20006;-78
2021/09/27 04:35:28;;;;;;;13.88;8.82;;;18.70;99.90;;;;;;6298940;22;20004;-79
2021/09/27 04:37:54;;;;;;;12.32;8.05;;;18.70;99.90;;;;;;6300538;22;20006;-77
2021/09/27 04:40:41;;;;;;;11.27;7.35;;;18.70;99.90;;;;;;6301700;22;20041;-79
2021/09/27 04:43:32;;;;;;;11.00;7.05;;;18.80;99.90;;;;;;6301993;22;20022;-80
2021/09/27 04:46:06;;;;;;;11.85;8.57;;;18.80;99.90;;;;;;6302114;22;19996;-80
2021/09/27 04:49:03;;;;;;;11.38;6.90;;;18.70;99.90;;;;;;6273824;22;20189;-79
2021/09/27 04:51:37;;;;;;;11.55;7.40;;;18.70;99.90;;;;;;6300754;22;20034;-81
2021/09/27 04:54:27;;;;;;;10.40;7.07;;;18.70;99.90;;;;;;6272020;22;20031;-80
2021/09/27 04:57:08;;;;;;;11.02;6.68;;;18.70;99.90;;;;;;6300723;22;20067;-78
2021/09/27 05:00:01;;;;;;;12.88;8.10;;;18.70;99.90;;;;;;6298979;22;20477;-80
2021/09/27 05:02:38;;;;;;;12.00;7.65;;;18.70;99.90;;;;;;6299341;22;20426;-79
2021/09/27 05:05:14;;;;;;;14.15;7.68;;;18.70;99.90;;;;;;6302002;22;20000;-81
2021/09/27 05:08:16;;;;;;;9.43;6.10;;;18.60;99.90;;;;;;6301686;22;20403;-80
2021/09/27 05:11:10;;;;;;;10.37;6.63;;;18.70;99.90;;;;;;6301170;22;20452;-78
2021/09/27 05:14:09;;;;;;;11.98;7.45;;;18.60;99.90;;;;;;6273039;22;20007;-78
2021/09/27 05:17:12;;;;;;;16.80;7.30;;;18.60;99.90;;;;;;6274966;22;20370;-77
2021/09/27 05:20:05;;;;;;;11.18;7.03;;;18.60;99.90;;;;;;6301206;22;20550;-78
2021/09/27 05:23:07;;;;;;;11.35;7.78;;;18.50;99.90;;;;;;6302145;22;20035;-78
2021/09/27 05:25:57;;;;;;;14.90;7.47;;;18.50;99.90;;;;;;6280928;22;19995;-78
2021/09/27 05:29:04;;;;;;;10.80;7.10;;;18.50;99.90;;;;;;6301638;22;20010;-79
2021/09/27 05:31:39;;;;;;;14.65;7.55;;;18.50;99.90;;;;;;6302681;22;20527;-78
2021/09/27 05:34:05;;;;;;;10.45;7.35;;;18.50;99.90;;;;;;6304025;22;20025;-79
2021/09/27 05:36:57;;;;;;;11.25;7.35;;;18.50;99.90;;;;;;6304188;22;19996;-79
2021/09/27 05:39:47;;;;;;;12.20;7.10;;;18.50;99.90;;;;;;6299783;22;20009;-78
2021/09/27 05:42:30;;;;;;;12.35;7.72;;;18.50;99.90;;;;;;6300529;22;20008;-78
2021/09/27 05:45:22;;;;;;;13.07;8.88;;;18.50;99.90;;;;;;6300368;22;20081;-78
2021/09/27 05:47:54;;;;;;;10.52;7.60;;;18.50;99.90;;;;;;6295551;22;20078;-78
2021/09/27 05:50:28;;;;;;;12.82;8.70;;;18.50;99.90;;;;;;6300407;22;20056;-78
2021/09/27 05:53:18;;;;;;;15.55;9.38;;;18.50;99.90;;;;;;6300985;22;20014;-79
2021/09/27 05:55:52;;;;;;;13.70;8.10;;;18.50;99.90;;;;;;6301113;22;20036;-79
2021/09/27 05:58:47;;;;;;;15.80;8.93;;;18.50;99.90;;;;;;6301575;22;20057;-79
2021/09/27 06:01:35;;;;;;;17.60;9.70;;;18.50;99.90;;;;;;6301425;22;20006;-79
2021/09/27 06:04:22;;;;;;;15.15;9.20;;;18.50;99.90;;;;;;6301910;22;20088;-80
2021/09/27 06:06:55;;;;;;;15.70;9.63;;;18.50;99.90;;;;;;6301619;22;20425;-79
2021/09/27 06:09:32;;;;;;;13.52;8.32;;;18.50;99.90;;;;;;6301027;22;20027;-79
2021/09/27 06:12:13;;;;;;;14.10;8.88;;;18.50;99.90;;;;;;6300306;22;20003;-79
2021/09/27 06:14:39;;;;;;;16.23;9.90;;;18.50;99.90;;;;;;6301128;22;20003;-79
2021/09/27 06:17:26;;;;;;;18.85;10.18;;;18.50;99.90;;;;;;6274220;22;20003;-79
2021/09/27 06:20:30;;;;;;;16.73;9.88;;;18.50;99.90;;;;;;6300554;22;20371;-79
2021/09/27 06:23:16;;;;;;;19.52;9.68;;;18.50;99.90;;;;;;6215394;22;20303;-79
2021/09/27 06:25:54;;;;;;;17.50;10.32;;;18.50;99.90;;;;;;6300971;22;20279;-79
2021/09/27 06:28:44;;;;;;;18.02;10.40;;;18.50;99.90;;;;;;6300884;22;20000;-79
2021/09/27 06:31:25;;;;;;;16.48;9.15;;;18.50;99.90;;;;;;6299159;22;20011;-79
2021/09/27 06:34:09;;;;;;;17.77;9.88;;;18.50;99.90;;;;;;6300622;22;20508;-79
2021/09/27 06:36:35;;;;;;;19.88;10.23;;;18.50;99.90;;;;;;6301337;22;19999;-79
2021/09/27 06:39:06;;;;;;;16.00;9.65;;;18.60;99.90;;;;;;6300958;22;20025;-80
2021/09/27 06:41:35;;;;;;;17.92;10.35;;;18.60;99.90;;;;;;6272980;22;20011;-79
2021/09/27 06:44:01;;;;;;;18.33;9.93;;;18.60;99.90;;;;;;6300417;22;20076;-80
2021/09/27 06:46:26;;;;;;;14.85;9.02;;;18.70;99.90;;;;;;6300063;22;20329;-79
2021/09/27 06:48:52;;;;;;;15.25;8.98;;;18.70;99.90;;;;;;6300486;22;20023;-79
2021/09/27 06:51:18;;;;;;;18.55;9.77;;;18.80;99.90;;;;;;6299939;22;20013;-78
2021/09/27 06:53:44;;;;;;;15.65;9.40;;;18.90;99.90;;;;;;6301211;22;20010;-79
2021/09/27 06:56:10;;;;;;;12.73;8.55;;;18.90;99.90;;;;;;6300534;22;20053;-79
2021/09/27 06:58:36;;;;;;;14.68;9.75;;;18.90;99.90;;;;;;6300544;22;20001;-79
2021/09/27 07:01:02;;;;;;;17.67;9.45;;;18.90;99.90;;;;;;6300575;22;19999;-79
2021/09/27 07:03:28;;;;;;;13.68;9.82;;;18.90;99.90;;;;;;6300682;22;19995;-79
2021/09/27 07:05:53;;;;;;;12.55;9.43;;;19.00;99.90;;;;;;6300429;22;20090;-80
2021/09/27 07:08:20;;;;;;;12.70;10.20;;;19.00;99.90;;;;;;6300669;22;20000;-79
2021/09/27 07:10:48;;;;;;;14.63;10.68;;;19.00;99.90;;;;;;6300028;22;20380;-80
2021/09/27 07:13:14;;;;;;;16.75;10.05;;;19.00;99.90;;;;;;6299940;22;20057;-79
2021/09/27 07:15:41;;;;;;;15.13;10.07;;;19.10;99.90;;;;;;6300786;22;20007;-79
2021/09/27 07:18:06;;;;;;;12.98;9.93;;;19.10;99.90;;;;;;6299325;22;20000;-79
2021/09/27 07:20:32;;;;;;;12.68;8.77;;;19.20;99.90;;;;;;6297552;22;20050;-79
2021/09/27 07:22:58;;;;;;;10.77;7.45;;;19.20;99.90;;;;;;6299456;22;20007;-79
2021/09/27 07:25:26;;;;;;;11.05;6.97;;;19.30;99.90;;;;;;6300366;22;20082;-79
2021/09/27 07:27:52;;;;;;;10.52;7.10;;;19.30;99.90;;;;;;6300038;22;20014;-78
2021/09/27 07:30:19;;;;;;;10.68;7.20;;;19.30;99.90;;;;;;6300999;22;19999;-87
2021/09/27 07:32:45;;;;;;;11.40;6.05;;;19.30;99.90;;;;;;6273632;22;20035;-86
2021/09/27 07:35:15;;;;;;;7.90;5.72;;;19.40;99.90;;;;;;6273827;22;20010;-88
2021/09/27 07:37:40;;;;;;;8.13;5.82;;;19.40;99.90;;;;;;6275325;22;20517;-88
2021/09/27 07:40:12;;;;;;;6.60;4.78;;;19.50;99.90;;;;;;6274589;22;20034;-78
2021/09/27 07:42:37;;;;;;;10.73;5.35;;;19.50;99.90;;;;;;6299526;22;20029;-80
2021/09/27 07:45:06;;;;;;;9.68;5.72;;;19.50;99.90;;;;;;6299311;22;20409;-80
2021/09/27 07:47:32;;;;;;;6.25;4.28;;;19.50;99.90;;;;;;6298291;22;20006;-79
2021/09/27 07:49:57;;;;;;;6.90;4.78;;;19.50;99.90;;;;;;6299764;22;20003;-79
2021/09/27 07:52:23;;;;;;;4.85;4.10;;;19.50;99.90;;;;;;6270740;22;20515;-79
2021/09/27 07:54:48;;;;;;;7.78;4.80;;;19.60;99.90;;;;;;6298299;22;20003;-79
2021/09/27 07:57:15;;;;;;;4.85;4.10;;;19.60;99.90;;;;;;6299296;22;20025;-79
2021/09/27 07:59:40;;;;;;;4.95;3.85;;;19.60;99.90;;;;;;6299847;22;19999;-79
2021/09/27 08:02:06;;;;;;;5.47;4.72;;;19.60;99.90;;;;;;6298819;22;20011;-80
2021/09/27 08:04:34;;;;;;;5.60;4.32;;;19.70;99.90;;;;;;6299907;22;19995;-79
2021/09/27 08:06:59;;;;;;;4.88;3.63;;;19.70;99.90;;;;;;6299588;22;20008;-79
2021/09/27 08:09:25;;;;;;;4.70;4.22;;;19.80;99.90;;;;;;6299532;22;20078;-78
2021/09/27 08:11:50;;;;;;;5.03;4.00;;;19.80;99.90;;;;;;6298769;22;20004;-78
2021/09/27 08:14:16;;;;;;;4.45;3.95;;;19.90;99.90;;;;;;6298151;22;20086;-78
2021/09/27 08:16:42;;;;;;;5.22;4.10;;;19.90;99.90;;;;;;6299508;22;20365;-78
2021/09/27 08:19:07;;;;;;;7.60;4.25;;;20.00;99.90;;;;;;6299274;22;19999;-79
2021/09/27 08:21:33;;;;;;;6.35;3.97;;;20.10;99.90;;;;;;6299537;22;20014;-79
2021/09/27 08:23:59;;;;;;;7.78;4.25;;;20.10;99.90;;;;;;6299915;22;20486;-78
2021/09/27 08:26:25;;;;;;;7.38;4.95;;;20.10;99.90;;;;;;6299175;22;20018;-78
2021/09/27 08:28:50;;;;;;;5.53;3.67;;;20.20;99.90;;;;;;6271668;22;19999;-78
2021/09/27 08:31:20;;;;;;;6.00;4.35;;;20.30;99.90;;;;;;6298833;22;20003;-78
2021/09/27 08:33:47;;;;;;;6.63;4.68;;;20.40;99.90;;;;;;6299828;22;20007;-79
2021/09/27 08:36:15;;;;;;;6.20;4.65;;;20.50;99.90;;;;;;6299474;22;20031;-78
2021/09/27 08:38:41;;;;;;;7.53;5.25;;;20.70;99.90;;;;;;6298546;22;20071;-78
2021/09/27 08:41:21;;;;;;;6.22;4.95;;;20.80;99.90;;;;;;6299329;22;19999;-79
2021/09/27 08:44:23;;;;;;;5.53;4.38;;;20.90;99.90;;;;;;6299579;22;20006;-79
2021/09/27 08:47:04;;;;;;;7.13;4.53;;;21.00;99.80;;;;;;6298579;22;20130;-78
2021/09/27 08:49:41;;;;;;;6.43;4.57;;;21.00;99.40;;;;;;6270985;22;20007;-79
2021/09/27 08:52:09;;;;;;;6.28;4.75;;;21.00;99.40;;;;;;6299353;22;19999;-80
2021/09/27 08:54:35;;;;;;;7.40;5.03;;;21.10;99.60;;;;;;6299551;22;20725;-79
2021/09/27 08:57:29;;;;;;;6.82;4.95;;;21.10;99.30;;;;;;6299100;22;20102;-78
2021/09/27 09:00:08;;;;;;;8.00;5.35;;;21.20;99.80;;;;;;6299375;22;20421;-78
2021/09/27 09:02:55;;;;;;;8.27;4.55;;;21.30;99.20;;;;;;6299116;22;20080;-78
2021/09/27 09:05:41;;;;;;;7.53;5.68;;;21.30;99.50;;;;;;6301628;22;20134;-78
2021/09/27 09:08:26;;;;;;;10.48;5.47;;;21.40;99.10;;;;;;6300518;22;20426;-78
2021/09/27 09:10:55;;;;;;;9.85;5.50;;;21.40;99.00;;;;;;6302027;22;20430;-78
2021/09/27 09:13:34;;;;;;;7.10;4.90;;;21.40;98.70;;;;;;6273247;22;20434;-78
2021/09/27 09:16:04;;;;;;;8.75;5.30;;;21.40;99.10;;;;;;6301868;22;20007;-78
2021/09/27 09:18:40;;;;;;;5.85;5.25;;;21.40;99.50;;;;;;6300727;22;19999;-78
2021/09/27 09:21:12;;;;;;;8.88;5.68;;;21.40;99.30;;;;;;6300779;22;19999;-78
2021/09/27 09:23:44;;;;;;;7.38;5.70;;;21.40;99.30;;;;;;6301118;22;20425;-79
2021/09/27 09:26:13;;;;;;;8.38;6.00;;;21.40;99.40;;;;;;6301247;22;20025;-78
2021/09/27 09:28:41;;;;;;;7.50;5.90;;;21.40;99.90;;;;;;6300435;22;20086;-79
2021/09/27 09:31:17;;;;;;;11.00;6.78;;;21.40;99.90;;;;;;6301406;22;20003;-78
2021/09/27 09:33:52;;;;;;;9.20;5.95;;;21.50;99.80;;;;;;6301737;22;20003;-79
2021/09/27 09:36:33;;;;;;;7.38;5.13;;;21.50;99.80;;;;;;6300786;22;20057;-78
2021/09/27 09:39:01;;;;;;;9.35;6.28;;;21.60;98.70;;;;;;6299978;22;20010;-78
2021/09/27 09:41:46;;;;;;;7.53;5.85;;;21.60;98.70;;;;;;6273606;22;20046;-78
2021/09/27 09:44:33;;;;;;;6.00;5.30;;;21.60;98.60;;;;;;6300566;22;20323;-78
2021/09/27 09:47:00;;;;;;;10.55;5.45;;;21.60;99.10;;;;;;6301425;22;20376;-78
2021/09/27 09:49:29;;;;;;;11.88;6.32;;;21.60;99.30;;;;;;6300281;22;20432;-77
2021/09/27 09:52:01;;;;;;;6.75;5.60;;;21.70;99.30;;;;;;6301057;22;20184;-78
2021/09/27 09:54:29;;;;;;;8.98;6.22;;;21.80;98.90;;;;;;6300338;22;20094;-80
2021/09/27 09:57:05;;;;;;;7.97;5.30;;;21.80;98.50;;;;;;6300111;22;20011;-78
2021/09/27 09:59:40;;;;;;;9.32;5.40;;;21.80;98.50;;;;;;6299702;22;20030;-78
2021/09/27 10:02:16;;;;;;;8.07;6.68;;;21.90;98.70;;;;;;6300405;22;20430;-78
2021/09/27 10:04:49;;;;;;;6.90;5.28;;;21.90;98.40;;;;;;6300820;22;20042;-78
2021/09/27 10:07:26;;;;;;;5.78;4.70;;;22.00;98.70;;;;;;6300042;22;20084;-78
2021/09/27 10:10:00;;;;;;;6.35;4.93;;;22.10;98.60;;;;;;6298109;22;20048;-78
2021/09/27 10:12:56;;;;;;;7.32;4.25;;;22.20;98.00;;;;;;6299872;22;20421;-79
2021/09/27 10:15:33;;;;;;;7.90;6.15;;;22.30;97.40;;;;;;6266662;22;20014;-78
2021/09/27 10:18:06;;;;;;;10.07;5.82;;;22.40;97.80;;;;;;6299853;22;20350;-78
2021/09/27 10:20:39;;;;;;;9.70;6.13;;;22.40;97.90;;;;;;6300461;22;19999;-78
2021/09/27 10:23:11;;;;;;;7.45;5.97;;;22.50;97.60;;;;;;6300182;22;20088;-78
2021/09/27 10:25:43;;;;;;;6.85;5.35;;;22.50;97.30;;;;;;6299559;22;20369;-78
2021/09/27 10:28:21;;;;;;;9.65;6.05;;;22.60;97.40;;;;;;6299170;22;20022;-78
2021/09/27 10:30:57;;;;;;;7.28;5.55;;;22.60;97.30;;;;;;6300030;22;19999;-78
2021/09/27 10:33:26;;;;;;;8.40;5.95;;;22.60;97.00;;;;;;6299462;22;20385;-79
2021/09/27 10:36:08;;;;;;;8.23;5.65;;;22.60;96.70;;;;;;6299623;22;20453;-81
2021/09/27 10:38:58;;;;;;;7.18;5.40;;;22.60;96.90;;;;;;6276356;22;20087;-90
2021/09/27 10:41:26;;;;;;;9.18;6.13;;;22.60;97.30;;;;;;6276531;22;20522;-90
2021/09/27 10:43:54;;;;;;;6.15;5.28;;;22.60;97.30;;;;;;6304405;22;20003;-91
2021/09/27 10:46:26;;;;;;;6.90;5.57;;;22.60;97.30;;;;;;6302895;22;20441;-92
2021/09/27 10:48:55;;;;;;;6.75;5.53;;;22.60;97.00;;;;;;6274495;22;20003;-86
2021/09/27 10:51:26;;;;;;;9.32;5.22;;;22.60;97.20;;;;;;6301311;22;20000;-79
2021/09/27 10:54:24;;;;;;;7.20;5.50;;;22.60;97.30;;;;;;6272899;22;20192;-78
2021/09/27 10:56:53;;;;;;;9.02;6.32;;;22.70;97.20;;;;;;6299093;22;20429;-79
2021/09/27 10:59:44;;;;;;;6.97;4.95;;;22.60;97.60;;;;;;6298721;22;20003;-79
2021/09/27 11:02:26;;;;;;;9.05;5.75;;;22.70;97.40;;;;;;6299367;22;20018;-79
2021/09/27 11:05:03;;;;;;;9.15;5.45;;;22.70;97.80;;;;;;6299551;22;20110;-79
2021/09/27 11:07:35;;;;;;;8.70;4.97;;;22.70;97.30;;;;;;6299386;22;20445;-79
2021/09/27 11:10:01;;;;;;;9.23;5.55;;;22.80;97.40;;;;;;6300033;22;19995;-79
2021/09/27 11:12:37;;;;;;;8.02;5.60;;;22.80;97.60;;;;;;6299542;22;20014;-79
2021/09/27 11:15:23;;;;;;;8.07;5.45;;;22.80;97.40;;;;;;6299843;22;20021;-78
2021/09/27 11:18:12;;;;;;;8.85;5.50;;;22.80;96.70;;;;;;6299273;22;20115;-79
2021/09/27 11:20:40;;;;;;;7.03;5.35;;;22.80;96.80;;;;;;6299981;22;20591;-79
2021/09/27 11:23:18;;;;;;;6.93;5.47;;;22.80;96.70;;;;;;6298761;22;20011;-78
2021/09/27 11:25:48;;;;;;;7.03;5.57;;;22.90;97.30;;;;;;6299914;22;20035;-78
2021/09/27 11:28:39;;;;;;;6.40;5.60;;;22.90;97.40;;;;;;6271559;22;20010;-79
2021/09/27 11:31:19;;;;;;;7.20;6.05;;;22.90;97.30;;;;;;6299484;22;20006;-78
2021/09/27 11:33:49;;;;;;;5.68;5.07;;;23.00;97.30;;;;;;6299596;22;19995;-78
2021/09/27 11:36:18;;;;;;;6.68;5.30;;;23.00;97.20;;;;;;6299929;22;20007;-79
2021/09/27 11:38:49;;;;;;;6.40;5.35;;;23.10;97.40;;;;;;6299259;22;20031;-78
2021/09/27 11:41:15;;;;;;;6.57;5.07;;;23.20;96.90;;;;;;6298331;22;20009;-78
2021/09/27 11:44:08;;;;;;;5.15;4.45;;;23.30;96.70;;;;;;6299747;22;20019;-78
2021/09/27 11:46:43;;;;;;;5.72;4.95;;;23.50;95.70;;;;;;6296574;22;20344;-78
2021/09/27 11:49:26;;;;;;;5.28;4.78;;;23.80;95.50;;;;;;6298375;22;19999;-78
2021/09/27 11:52:28;;;;;;;6.47;4.97;;;23.90;95.40;;;;;;6299024;22;20483;-78
2021/09/27 11:55:06;;;;;;;6.25;4.75;;;24.10;94.50;;;;;;6299407;22;19999;-78
2021/09/27 11:57:54;;;;;;;7.43;4.88;;;24.20;94.40;;;;;;6271511;22;20003;-78
2021/09/27 12:00:25;;;;;;;11.85;5.30;;;24.10;94.60;;;;;;6299536;22;20049;-79
2021/09/27 12:03:08;;;;;;;8.50;6.45;;;24.10;94.00;;;;;;6299038;22;20450;-79
2021/09/27 12:05:45;;;;;;;7.22;6.35;;;24.10;93.40;;;;;;6299085;22;19999;-79
2021/09/27 12:08:23;;;;;;;7.25;5.68;;;24.00;93.90;;;;;;6299034;22;19999;-79
2021/09/27 12:10:54;;;;;;;5.35;4.60;;;24.00;94.50;;;;;;6298832;22;19999;-78
2021/09/27 12:13:25;;;;;;;8.38;5.72;;;23.90;94.40;;;;;;6299082;22;20050;-79
2021/09/27 12:15:57;;;;;;;6.53;5.90;;;23.90;94.90;;;;;;6298622;22;20485;-79
2021/09/27 12:18:52;;;;;;;6.68;5.60;;;23.90;94.60;;;;;;6298534;22;20003;-78
2021/09/27 12:21:20;;;;;;;5.72;5.13;;;23.90;94.30;;;;;;6299025;22;20000;-79
2021/09/27 12:24:09;;;;;;;9.60;6.53;;;23.80;94.80;;;;;;6298886;22;20441;-79
2021/09/27 12:26:39;;;;;;;7.25;6.07;;;23.80;94.90;;;;;;6272183;22;20011;-78
2021/09/27 12:29:13;;;;;;;8.80;6.13;;;23.80;95.10;;;;;;6298378;22;20006;-78
2021/09/27 12:31:51;;;;;;;8.18;6.72;;;23.70;94.90;;;;;;6298724;22;20029;-79
2021/09/27 12:34:22;;;;;;;6.82;6.13;;;23.70;95.50;;;;;;6298970;22;20449;-80
2021/09/27 12:36:49;;;;;;;8.50;6.25;;;23.60;95.60;;;;;;6298671;22;19991;-79
2021/09/27 12:39:20;;;;;;;7.00;6.30;;;23.60;95.50;;;;;;6298686;22;20133;-79
2021/09/27 12:41:46;;;;;;;7.10;6.00;;;23.60;94.50;;;;;;6298536;22;20007;-79
2021/09/27 12:44:23;;;;;;;8.52;6.70;;;23.60;95.10;;;;;;6271710;22;20078;-78
2021/09/27 12:46:50;;;;;;;6.72;5.93;;;23.60;95.30;;;;;;6298854;22;20465;-79
2021/09/27 12:49:27;;;;;;;8.30;6.20;;;23.60;96.10;;;;;;6298097;22;20374;-78
2021/09/27 12:51:55;;;;;;;7.65;5.93;;;23.60;94.80;;;;;;6299036;22;20003;-79
2021/09/27 12:54:35;;;;;;;7.97;6.38;;;23.70;94.30;;;;;;6298803;22;20006;-79
2021/09/27 12:57:07;;;;;;;6.60;5.50;;;23.70;95.00;;;;;;6298895;22;19999;-78
2021/09/27 12:59:33;;;;;;;9.75;6.72;;;23.70;94.90;;;;;;6298369;22;20379;-78
2021/09/27 13:02:04;;;;;;;7.05;5.65;;;23.70;95.20;;;;;;6270800;22;20011;-78
2021/09/27 13:04:29;;;;;;;6.32;5.72;;;23.80;94.80;;;;;;6299391;22;20003;-79
2021/09/27 13:07:04;;;;;;;6.75;5.93;;;23.90;94.90;;;;;;6298284;22;20027;-79
2021/09/27 13:09:34;;;;;;;7.07;6.38;;;23.90;94.90;;;;;;6298418;22;20007;-79
2021/09/27 13:12:15;;;;;;;9.23;6.63;;;24.00;95.10;;;;;;6298624;22;20007;-77
2021/09/27 13:14:45;;;;;;;8.90;6.53;;;24.00;94.70;;;;;;6299473;22;20082;-78
2021/09/27 13:17:23;;;;;;;6.53;5.82;;;24.00;94.70;;;;;;6298793;22;20090;-78
2021/09/27 13:19:52;;;;;;;8.70;6.15;;;24.00;95.00;;;;;;6298261;22;20425;-79
2021/09/27 13:22:23;;;;;;;7.38;6.63;;;24.00;94.70;;;;;;6298416;22;20014;-78
2021/09/27 13:25:30;;;;;;;8.20;6.13;;;24.00;94.80;;;;;;6299619;22;20000;-78
2021/09/27 13:28:01;;;;;;;7.70;6.90;;;23.90;94.90;;;;;;6298322;22;20318;-78
2021/09/27 13:30:31;;;;;;;9.27;7.15;;;23.90;95.00;;;;;;6298514;22;20006;-79
2021/09/27 13:33:04;;;;;;;7.55;6.75;;;23.80;95.00;;;;;;6298076;22;20064;-78